Time;durP1;ratioP1;P1;durP2;ratioP2;P2;SDS_P1;SDS_P2;PMS_P1;PMS_P2;Temp;Humidity;BMP_temperature;BMP_pressure;BME280_temperature;BME280_humidity;BME280_pressure;Samples;Min_cycle;Max_cycle;Signal;HPM_P1;HPM_P2
2023/07/30 00:01:49;;;;;;;4.87;3.17;;;16.60;99.90;;;;;;4934060;28;20223;-81
2023/07/30 00:04:15;;;;;;;10.37;3.07;;;16.60;99.90;;;;;;4965614;28;20279;-81
2023/07/30 00:06:41;;;;;;;13.13;3.30;;;16.60;99.90;;;;;;4968165;28;20236;-81
2023/07/30 00:09:07;;;;;;;12.87;2.93;;;16.60;99.90;;;;;;4953516;28;20204;-82
2023/07/30 00:11:32;;;;;;;8.77;4.13;;;16.60;99.90;;;;;;4963946;28;20231;-81
2023/07/30 00:13:58;;;;;;;10.63;3.27;;;16.50;99.90;;;;;;4946003;28;20308;-83
2023/07/30 00:16:26;;;;;;;5.20;2.73;;;16.60;99.90;;;;;;4948645;28;20276;-81
2023/07/30 00:18:51;;;;;;;7.20;3.57;;;16.60;99.90;;;;;;4969322;28;20333;-81
2023/07/30 00:21:17;;;;;;;25.10;4.87;;;16.50;99.90;;;;;;4963320;28;20616;-81
2023/07/30 00:23:43;;;;;;;17.47;3.40;;;16.50;99.90;;;;;;4967273;28;20638;-81
2023/07/30 00:26:09;;;;;;;15.23;4.30;;;16.50;99.90;;;;;;4946619;28;20659;-81
2023/07/30 00:28:34;;;;;;;9.03;3.67;;;16.50;99.90;;;;;;4962450;28;20275;-82
2023/07/30 00:31:00;;;;;;;10.80;3.17;;;16.50;99.90;;;;;;4966356;28;20220;-81
2023/07/30 00:33:26;;;;;;;12.17;2.30;;;16.50;99.90;;;;;;4961866;28;20658;-81
2023/07/30 00:35:52;;;;;;;7.17;3.30;;;16.50;99.90;;;;;;4967352;28;20254;-81
2023/07/30 00:38:19;;;;;;;9.47;3.77;;;16.50;99.90;;;;;;4963934;28;20229;-82
2023/07/30 00:40:45;;;;;;;8.00;3.27;;;16.40;99.90;;;;;;4965408;28;20271;-81
2023/07/30 00:43:10;;;;;;;10.17;4.00;;;16.50;99.90;;;;;;4944826;28;20385;-82
2023/07/30 00:45:38;;;;;;;17.43;4.20;;;16.50;99.90;;;;;;4946055;28;20741;-82
2023/07/30 00:48:04;;;;;;;9.30;4.10;;;16.50;99.90;;;;;;4950451;28;20220;-83
2023/07/30 00:50:31;;;;;;;10.60;3.53;;;16.50;99.90;;;;;;4944403;28;20257;-82
2023/07/30 00:52:57;;;;;;;9.77;4.10;;;16.50;99.90;;;;;;4958134;28;20256;-83
2023/07/30 00:55:23;;;;;;;7.07;2.30;;;16.50;99.90;;;;;;4963022;28;20704;-82
2023/07/30 00:57:50;;;;;;;15.30;3.83;;;16.50;99.90;;;;;;4946711;28;20303;-82
2023/07/30 01:00:16;;;;;;;14.13;3.67;;;16.50;99.90;;;;;;4963806;28;20213;-83
2023/07/30 01:02:41;;;;;;;6.40;3.60;;;16.50;99.90;;;;;;4962924;28;20189;-82
2023/07/30 01:05:07;;;;;;;10.43;3.57;;;16.70;99.90;;;;;;4945631;28;20313;-83
2023/07/30 01:07:33;;;;;;;9.03;2.73;;;16.60;99.90;;;;;;4965229;28;20704;-81
2023/07/30 01:10:00;;;;;;;11.00;3.33;;;16.70;99.90;;;;;;4945062;28;20705;-82
2023/07/30 01:12:29;;;;;;;9.43;3.77;;;16.70;99.90;;;;;;4962139;28;20655;-81
2023/07/30 01:14:56;;;;;;;15.23;3.93;;;16.70;99.90;;;;;;4963058;28;20221;-82
2023/07/30 01:17:24;;;;;;;14.83;5.00;;;16.70;99.90;;;;;;4963076;28;20224;-83
2023/07/30 01:19:54;;;;;;;15.93;3.50;;;16.70;99.90;;;;;;4964049;28;20375;-83
2023/07/30 01:22:23;;;;;;;11.73;3.50;;;16.70;99.90;;;;;;4961195;28;20227;-81
2023/07/30 01:24:49;;;;;;;14.43;3.53;;;16.80;99.90;;;;;;4967015;28;20231;-83
2023/07/30 01:27:28;;;;;;;10.80;3.70;;;16.80;99.90;;;;;;4944099;28;20197;-82
2023/07/30 01:30:02;;;;;;;15.00;3.80;;;16.80;99.90;;;;;;4965949;28;20188;-81
2023/07/30 01:32:29;;;;;;;8.60;2.90;;;16.80;99.90;;;;;;4965988;28;20226;-83
2023/07/30 01:34:57;;;;;;;11.07;4.13;;;16.90;99.90;;;;;;4964662;28;20287;-82
2023/07/30 01:37:24;;;;;;;10.93;4.60;;;16.90;99.90;;;;;;4961137;28;20228;-82
2023/07/30 01:39:51;;;;;;;13.87;3.53;;;16.90;99.90;;;;;;4946255;28;20216;-81
2023/07/30 01:42:17;;;;;;;8.90;3.53;;;16.90;99.90;;;;;;4945178;28;20283;-82
2023/07/30 01:44:43;;;;;;;17.80;5.23;;;17.00;99.90;;;;;;4945381;28;20201;-81
2023/07/30 01:47:09;;;;;;;8.87;2.90;;;17.00;99.90;;;;;;4961724;28;20217;-83
2023/07/30 01:49:35;;;;;;;5.67;3.40;;;17.00;99.90;;;;;;4961519;28;20286;-82
2023/07/30 01:52:00;;;;;;;8.17;2.87;;;17.10;99.90;;;;;;4944287;28;20224;-81
2023/07/30 01:54:26;;;;;;;19.10;4.40;;;17.00;99.90;;;;;;4961673;28;20227;-81
2023/07/30 01:56:53;;;;;;;8.73;3.27;;;17.00;99.90;;;;;;4962600;28;20208;-81
2023/07/30 01:59:19;;;;;;;21.27;4.70;;;17.00;99.90;;;;;;4962776;28;20749;-81
2023/07/30 02:01:45;;;;;;;9.47;3.47;;;17.00;99.90;;;;;;4944505;28;20239;-82
2023/07/30 02:04:11;;;;;;;10.70;2.90;;;17.00;99.90;;;;;;4958537;28;20232;-83
2023/07/30 02:06:36;;;;;;;10.77;3.47;;;17.00;99.90;;;;;;4956373;28;20240;-82
2023/07/30 02:09:02;;;;;;;8.53;3.03;;;17.00;99.90;;;;;;4963068;28;20669;-82
2023/07/30 02:11:28;;;;;;;12.50;4.47;;;17.00;99.90;;;;;;4962487;28;20763;-83
2023/07/30 02:13:54;;;;;;;8.53;3.13;;;17.00;99.90;;;;;;4960767;28;20220;-82
2023/07/30 02:16:20;;;;;;;14.43;3.80;;;17.00;99.90;;;;;;4962448;28;20239;-83
2023/07/30 02:18:46;;;;;;;10.47;3.97;;;17.00;99.90;;;;;;4961285;28;20228;-82
2023/07/30 02:21:13;;;;;;;7.47;3.30;;;17.00;99.90;;;;;;4962797;28;20184;-82
2023/07/30 02:23:38;;;;;;;16.97;4.77;;;17.00;99.90;;;;;;4961917;28;20203;-83
2023/07/30 02:26:04;;;;;;;13.80;3.83;;;17.00;99.90;;;;;;4961463;28;20223;-82
2023/07/30 02:28:30;;;;;;;10.17;4.07;;;17.00;99.90;;;;;;4963587;28;20777;-82
2023/07/30 02:30:55;;;;;;;16.37;3.90;;;17.00;99.90;;;;;;4959899;28;20895;-83
2023/07/30 02:33:21;;;;;;;7.70;3.17;;;17.00;99.90;;;;;;4957114;28;20194;-81
2023/07/30 02:35:47;;;;;;;11.23;4.27;;;16.90;99.90;;;;;;4958058;28;20376;-82
2023/07/30 02:38:13;;;;;;;11.90;3.50;;;16.90;99.90;;;;;;4944706;28;20220;-81
2023/07/30 02:40:38;;;;;;;12.73;3.43;;;16.90;99.90;;;;;;4961526;28;20227;-81
2023/07/30 02:43:04;;;;;;;10.30;2.20;;;16.90;99.90;;;;;;4963133;28;20224;-81
2023/07/30 02:45:30;;;;;;;11.77;3.00;;;16.90;99.90;;;;;;4961375;28;20306;-81
2023/07/30 02:47:56;;;;;;;8.07;2.57;;;16.90;99.90;;;;;;4961891;28;20572;-81
2023/07/30 02:50:21;;;;;;;11.90;3.33;;;16.90;99.90;;;;;;4960722;28;20259;-81
2023/07/30 02:52:47;;;;;;;11.40;2.97;;;16.90;99.90;;;;;;4963376;28;20278;-81
2023/07/30 02:55:13;;;;;;;9.23;3.40;;;16.90;99.90;;;;;;4966122;28;20867;-82
2023/07/30 02:57:39;;;;;;;9.23;1.80;;;16.80;99.90;;;;;;4946205;28;20224;-81
2023/07/30 03:00:05;;;;;;;14.70;4.33;;;16.90;99.90;;;;;;4960322;28;20200;-82
2023/07/30 03:02:31;;;;;;;11.27;3.30;;;16.90;99.90;;;;;;4959245;28;20279;-81
2023/07/30 03:04:57;;;;;;;9.73;2.50;;;16.80;99.90;;;;;;4961294;28;20236;-82
2023/07/30 03:07:22;;;;;;;6.97;2.43;;;16.80;99.90;;;;;;4948078;28;20316;-82
2023/07/30 03:09:48;;;;;;;6.77;3.00;;;16.80;99.90;;;;;;4948681;28;20220;-82
2023/07/30 03:12:14;;;;;;;3.83;2.07;;;16.80;99.90;;;;;;4963315;28;20196;-82
2023/07/30 03:14:40;;;;;;;5.17;1.83;;;16.80;99.90;;;;;;4945171;28;20245;-84
2023/07/30 03:17:06;;;;;;;13.67;3.07;;;16.80;99.90;;;;;;4965023;28;20224;-82
2023/07/30 03:19:32;;;;;;;10.87;2.47;;;16.70;99.90;;;;;;4943496;28;20717;-82
2023/07/30 03:21:57;;;;;;;13.03;2.73;;;16.80;99.90;;;;;;4959690;28;20645;-82
2023/07/30 03:24:23;;;;;;;9.67;2.33;;;16.70;99.90;;;;;;4959589;28;20567;-82
2023/07/30 03:26:49;;;;;;;10.00;2.67;;;16.70;99.90;;;;;;4961013;28;20678;-82
2023/07/30 03:29:15;;;;;;;3.40;2.30;;;16.70;99.90;;;;;;4959147;28;20291;-83
2023/07/30 03:31:41;;;;;;;2.70;2.30;;;16.60;99.90;;;;;;4960717;28;20228;-81
2023/07/30 03:34:07;;;;;;;3.07;2.17;;;16.60;99.90;;;;;;4943251;28;20244;-82
2023/07/30 03:36:33;;;;;;;7.17;2.40;;;16.50;99.90;;;;;;4963471;28;20233;-81
2023/07/30 03:38:59;;;;;;;5.97;1.70;;;16.50;99.90;;;;;;4959338;28;20185;-81
2023/07/30 03:41:25;;;;;;;4.87;2.00;;;16.50;99.90;;;;;;4962223;28;20220;-81
2023/07/30 03:43:51;;;;;;;3.73;2.33;;;16.50;99.90;;;;;;4945749;28;20231;-83
2023/07/30 03:46:16;;;;;;;4.33;1.40;;;16.50;99.90;;;;;;4963751;28;20224;-82
2023/07/30 03:48:42;;;;;;;4.90;1.83;;;16.40;99.90;;;;;;4962074;28;20229;-82
2023/07/30 03:51:08;;;;;;;3.47;2.07;;;16.50;99.90;;;;;;4962633;28;20227;-82
2023/07/30 03:53:34;;;;;;;3.30;1.23;;;16.50;99.90;;;;;;4950523;28;20674;-83
2023/07/30 03:56:00;;;;;;;6.33;1.30;;;16.50;99.90;;;;;;4966054;28;20230;-82
2023/07/30 03:58:26;;;;;;;3.37;1.50;;;16.50;99.90;;;;;;4959350;28;20219;-82
2023/07/30 04:00:52;;;;;;;4.20;1.50;;;16.60;99.90;;;;;;4946400;28;20228;-82
2023/07/30 04:03:18;;;;;;;2.57;1.07;;;16.50;99.90;;;;;;4961250;28;20838;-83
2023/07/30 04:05:43;;;;;;;5.67;1.00;;;16.60;99.90;;;;;;4943502;28;20204;-82
2023/07/30 04:08:09;;;;;;;5.63;1.17;;;16.60;99.90;;;;;;4944504;28;20231;-83
2023/07/30 04:10:35;;;;;;;2.50;1.93;;;16.60;99.90;;;;;;4965723;28;20307;-82
2023/07/30 04:13:02;;;;;;;6.13;1.30;;;16.70;99.90;;;;;;4959576;28;20690;-83
2023/07/30 04:15:27;;;;;;;6.77;2.40;;;16.70;99.90;;;;;;4959389;28;20276;-82
2023/07/30 04:17:54;;;;;;;1.50;1.00;;;16.70;99.90;;;;;;4961408;28;20188;-83
2023/07/30 04:20:19;;;;;;;5.90;1.00;;;16.80;99.90;;;;;;4961362;28;20217;-82
2023/07/30 04:22:45;;;;;;;3.27;1.20;;;16.80;99.90;;;;;;4948315;28;20547;-82
2023/07/30 04:25:11;;;;;;;2.27;1.63;;;16.90;99.90;;;;;;4933437;28;20331;-82
2023/07/30 04:27:37;;;;;;;4.87;1.20;;;16.90;99.90;;;;;;4965284;28;20665;-83
2023/07/30 04:30:05;;;;;;;2.20;1.33;;;16.90;99.90;;;;;;4951017;28;20185;-81
2023/07/30 04:32:31;;;;;;;0.70;0.70;;;17.00;99.90;;;;;;4968467;28;20320;-82
2023/07/30 04:34:56;;;;;;;1.70;0.77;;;17.10;99.90;;;;;;4947183;28;20228;-81
2023/07/30 04:37:22;;;;;;;1.93;0.63;;;17.20;99.90;;;;;;4944987;28;20580;-82
2023/07/30 04:39:49;;;;;;;3.50;1.17;;;17.20;99.90;;;;;;4962650;28;20224;-81
2023/07/30 04:42:15;;;;;;;4.30;1.13;;;17.30;99.90;;;;;;4945609;28;20208;-82
2023/07/30 04:44:41;;;;;;;1.93;1.03;;;17.30;99.90;;;;;;4963358;28;20215;-81
2023/07/30 04:47:07;;;;;;;7.30;1.53;;;17.30;99.90;;;;;;4945731;28;20232;-81
2023/07/30 04:49:33;;;;;;;2.87;1.13;;;17.40;99.90;;;;;;4963079;28;20231;-81
2023/07/30 04:51:59;;;;;;;0.93;0.80;;;17.40;99.90;;;;;;4965049;28;20220;-82
2023/07/30 04:54:24;;;;;;;5.57;1.30;;;17.40;99.90;;;;;;4964503;28;20248;-82
2023/07/30 04:56:50;;;;;;;4.70;1.47;;;17.40;99.90;;;;;;4946465;28;20765;-82
2023/07/30 04:59:16;;;;;;;6.10;1.87;;;17.40;99.90;;;;;;4964094;28;20303;-82
2023/07/30 05:01:42;;;;;;;3.77;1.20;;;17.40;99.90;;;;;;4963430;28;20232;-82
2023/07/30 05:04:07;;;;;;;4.97;1.47;;;17.50;99.90;;;;;;4968111;28;20311;-81
2023/07/30 05:06:33;;;;;;;4.57;1.40;;;17.50;99.90;;;;;;4961881;28;20387;-82
2023/07/30 05:08:59;;;;;;;1.53;1.20;;;17.50;99.90;;;;;;4962289;28;20672;-81
2023/07/30 05:11:25;;;;;;;2.30;1.77;;;17.50;99.90;;;;;;4965336;28;20220;-83
2023/07/30 05:13:50;;;;;;;9.23;1.60;;;17.50;99.90;;;;;;4964022;28;20677;-82
2023/07/30 05:16:16;;;;;;;2.77;2.27;;;17.60;99.90;;;;;;4962695;28;20318;-82
2023/07/30 05:18:42;;;;;;;4.63;1.57;;;17.80;99.90;;;;;;4962316;28;20225;-82
2023/07/30 05:21:08;;;;;;;10.00;2.43;;;17.80;99.90;;;;;;4968348;28;20185;-82
2023/07/30 05:23:33;;;;;;;2.70;1.47;;;17.90;99.90;;;;;;4929290;28;20760;-81
2023/07/30 05:25:59;;;;;;;8.10;2.00;;;17.90;99.90;;;;;;4963072;28;20701;-83
2023/07/30 05:28:25;;;;;;;4.53;1.70;;;17.90;99.90;;;;;;4968706;28;20228;-81
2023/07/30 05:30:51;;;;;;;5.43;1.20;;;18.00;99.90;;;;;;4962818;28;20291;-83
2023/07/30 05:33:17;;;;;;;10.57;1.80;;;18.10;99.90;;;;;;4964463;28;20307;-83
2023/07/30 05:35:42;;;;;;;6.20;1.90;;;18.10;99.90;;;;;;4947673;28;20776;-82
2023/07/30 05:38:08;;;;;;;6.00;1.57;;;18.20;99.90;;;;;;4947880;28;20233;-81
2023/07/30 05:40:35;;;;;;;5.90;1.20;;;18.20;99.90;;;;;;4944159;28;20656;-82
2023/07/30 05:43:01;;;;;;;2.10;1.57;;;18.30;99.90;;;;;;4961975;28;20283;-81
2023/07/30 05:45:27;;;;;;;8.03;1.83;;;18.50;99.90;;;;;;4944540;28;20787;-83
2023/07/30 05:47:53;;;;;;;6.07;1.67;;;18.50;99.90;;;;;;4946305;28;20196;-82
2023/07/30 05:50:18;;;;;;;8.57;2.43;;;18.60;99.90;;;;;;4960251;28;20230;-83
2023/07/30 05:52:44;;;;;;;3.43;1.60;;;18.60;99.90;;;;;;4961706;28;20212;-82
2023/07/30 05:55:10;;;;;;;0.90;0.77;;;18.60;99.90;;;;;;4944903;28;20720;-82
2023/07/30 05:57:37;;;;;;;5.00;1.60;;;18.50;99.90;;;;;;4963548;28;20294;-82
2023/07/30 06:00:03;;;;;;;4.37;1.80;;;18.50;99.90;;;;;;4961129;28;20631;-83
2023/07/30 06:02:29;;;;;;;2.07;1.23;;;18.60;99.90;;;;;;4960814;28;20588;-81
2023/07/30 06:04:55;;;;;;;6.07;1.33;;;19.10;99.90;;;;;;4945032;28;20227;-82
2023/07/30 06:07:20;;;;;;;5.10;1.47;;;19.70;99.90;;;;;;4960428;28;20228;-82
2023/07/30 06:09:46;;;;;;;2.67;1.87;;;19.90;99.90;;;;;;4945143;28;20284;-83
2023/07/30 06:12:12;;;;;;;5.67;1.03;;;20.20;99.90;;;;;;4946083;28;21089;-82
2023/07/30 06:14:37;;;;;;;5.50;1.40;;;20.60;99.90;;;;;;4949460;28;20714;-81
2023/07/30 06:17:03;;;;;;;7.17;1.50;;;22.00;99.90;;;;;;4960286;28;20228;-82
2023/07/30 06:19:29;;;;;;;4.40;1.63;;;23.50;99.90;;;;;;4960805;28;20712;-83
2023/07/30 06:21:55;;;;;;;4.07;1.10;;;23.90;99.90;;;;;;4962345;28;20316;-82
2023/07/30 06:24:20;;;;;;;3.87;1.40;;;23.70;99.90;;;;;;4965121;28;20600;-84
2023/07/30 06:26:46;;;;;;;7.17;1.30;;;24.10;99.90;;;;;;4944516;28;20193;-81
2023/07/30 06:29:12;;;;;;;1.43;0.83;;;24.20;99.90;;;;;;4965374;28;20224;-84
2023/07/30 06:31:38;;;;;;;3.50;1.88;;;24.40;99.90;;;;;;4963539;28;20217;-84
2023/07/30 06:34:04;;;;;;;5.22;1.52;;;24.90;99.90;;;;;;4947124;28;20425;-83
2023/07/30 06:36:30;;;;;;;8.52;1.50;;;23.60;99.90;;;;;;4960843;28;20240;-84
2023/07/30 06:38:56;;;;;;;6.68;1.65;;;21.90;99.90;;;;;;4964441;28;20304;-83
2023/07/30 06:41:22;;;;;;;7.28;1.08;;;20.60;99.90;;;;;;4965964;28;20624;-83
2023/07/30 06:43:47;;;;;;;3.93;0.87;;;20.10;99.90;;;;;;4949071;28;20232;-83
2023/07/30 06:46:13;;;;;;;6.00;1.33;;;19.70;99.90;;;;;;4958763;28;20224;-82
2023/07/30 06:48:39;;;;;;;5.23;1.10;;;19.50;99.90;;;;;;4961944;28;20231;-83
2023/07/30 06:51:09;;;;;;;4.57;0.90;;;19.70;99.90;;;;;;4961986;28;20189;-84
2023/07/30 06:53:35;;;;;;;5.13;1.17;;;20.00;99.90;;;;;;4943335;28;20335;-82
2023/07/30 06:56:01;;;;;;;3.83;0.97;;;21.20;99.90;;;;;;4960060;28;20236;-82
2023/07/30 06:58:26;;;;;;;1.53;1.10;;;21.70;99.90;;;;;;4961242;28;20311;-83
2023/07/30 07:00:52;;;;;;;7.00;1.60;;;21.80;99.90;;;;;;4958444;28;20741;-85
2023/07/30 07:03:18;;;;;;;3.23;1.03;;;21.20;99.90;;;;;;4930395;28;20196;-82
2023/07/30 07:05:44;;;;;;;3.93;1.37;;;20.50;99.90;;;;;;4960018;28;20231;-82
2023/07/30 07:08:09;;;;;;;3.53;1.37;;;20.20;99.90;;;;;;4963805;28;20722;-83
2023/07/30 07:10:35;;;;;;;2.90;1.17;;;20.30;99.90;;;;;;4945650;28;21318;-82
2023/07/30 07:13:01;;;;;;;2.10;0.97;;;20.60;99.90;;;;;;4962092;28;20930;-82
2023/07/30 07:15:26;;;;;;;3.10;1.20;;;20.30;99.90;;;;;;4943103;28;21213;-82
2023/07/30 07:17:52;;;;;;;2.83;1.10;;;19.90;99.90;;;;;;4962643;28;20226;-82
2023/07/30 07:20:18;;;;;;;3.27;1.83;;;20.20;99.90;;;;;;4962054;28;20228;-81
2023/07/30 07:22:44;;;;;;;3.47;1.20;;;21.00;99.90;;;;;;4958802;28;20452;-84
2023/07/30 07:25:10;;;;;;;2.10;0.90;;;21.50;99.90;;;;;;4960405;28;20690;-83
2023/07/30 07:27:36;;;;;;;7.53;1.23;;;21.50;99.90;;;;;;4966288;28;20228;-82
2023/07/30 07:30:02;;;;;;;3.20;1.20;;;21.10;99.90;;;;;;4960916;28;20264;-83
2023/07/30 07:32:28;;;;;;;2.07;1.20;;;20.30;99.90;;;;;;4945559;28;20243;-83
2023/07/30 07:34:54;;;;;;;6.53;1.57;;;20.00;99.90;;;;;;4933132;28;20255;-84
2023/07/30 07:37:20;;;;;;;1.87;1.77;;;20.10;99.90;;;;;;4946618;28;20691;-83
2023/07/30 07:39:46;;;;;;;5.17;1.33;;;19.80;99.90;;;;;;4961850;28;20504;-83
2023/07/30 07:42:12;;;;;;;3.10;1.50;;;19.60;99.90;;;;;;4945152;28;20197;-82
2023/07/30 07:44:42;;;;;;;5.83;1.43;;;19.60;99.90;;;;;;4961631;28;20180;-83
2023/07/30 07:47:07;;;;;;;7.87;1.10;;;19.60;99.90;;;;;;4955255;28;20225;-83
2023/07/30 07:49:33;;;;;;;3.00;1.10;;;19.40;99.90;;;;;;4945220;28;21110;-83
2023/07/30 07:51:59;;;;;;;3.90;1.07;;;19.70;99.90;;;;;;4960003;28;20233;-83
2023/07/30 07:54:24;;;;;;;7.40;1.50;;;19.90;99.90;;;;;;4945670;28;20232;-83
2023/07/30 07:56:50;;;;;;;12.53;1.40;;;20.40;99.90;;;;;;4944319;28;20762;-83
2023/07/30 07:59:16;;;;;;;1.57;1.23;;;20.20;99.90;;;;;;4963092;28;20263;-84
2023/07/30 08:01:41;;;;;;;6.30;1.73;;;19.70;99.90;;;;;;4962055;28;21003;-84
2023/07/30 08:04:07;;;;;;;3.63;1.43;;;19.40;99.90;;;;;;4965067;28;20318;-83
2023/07/30 08:06:33;;;;;;;3.27;1.37;;;19.20;99.90;;;;;;4960336;28;20950;-82
2023/07/30 08:08:59;;;;;;;2.47;0.73;;;19.40;99.90;;;;;;4945985;28;20196;-83
2023/07/30 08:11:24;;;;;;;4.37;1.77;;;19.30;99.90;;;;;;4945623;28;20255;-82
2023/07/30 08:13:50;;;;;;;7.13;1.73;;;19.30;99.90;;;;;;4949389;28;20678;-82
2023/07/30 08:16:16;;;;;;;4.27;1.07;;;19.40;99.90;;;;;;4960263;28;20271;-83
2023/07/30 08:18:42;;;;;;;2.70;1.27;;;19.30;99.90;;;;;;4947109;28;20228;-83
2023/07/30 08:21:07;;;;;;;4.20;1.23;;;19.60;99.90;;;;;;4946708;28;20251;-84
2023/07/30 08:23:33;;;;;;;4.23;2.03;;;19.60;99.90;;;;;;4961801;28;20247;-82
2023/07/30 08:25:59;;;;;;;7.20;1.53;;;19.70;99.90;;;;;;4943471;28;20224;-84
2023/07/30 08:28:25;;;;;;;5.77;1.30;;;20.00;99.90;;;;;;4961736;28;20749;-82
2023/07/30 08:30:50;;;;;;;1.63;1.20;;;20.10;99.90;;;;;;4960922;28;20266;-82
2023/07/30 08:33:19;;;;;;;3.87;1.63;;;21.00;99.90;;;;;;4960387;28;20197;-83
2023/07/30 08:35:45;;;;;;;4.53;1.23;;;21.60;99.90;;;;;;4950214;28;20239;-82
2023/07/30 08:38:11;;;;;;;3.33;0.90;;;21.30;99.90;;;;;;4960762;28;20661;-83
2023/07/30 08:40:36;;;;;;;5.33;1.63;;;20.40;99.90;;;;;;4960587;28;20584;-82
2023/07/30 08:43:04;;;;;;;3.03;1.13;;;19.90;99.90;;;;;;4961221;28;20231;-83
2023/07/30 08:45:29;;;;;;;1.30;1.07;;;19.90;99.90;;;;;;4961761;28;20196;-84
2023/07/30 08:47:55;;;;;;;3.77;1.50;;;20.00;99.90;;;;;;4945002;28;20200;-82
2023/07/30 08:50:21;;;;;;;4.43;1.00;;;20.60;99.90;;;;;;4945857;28;20925;-83
2023/07/30 08:52:48;;;;;;;2.70;0.97;;;20.90;99.90;;;;;;4960935;28;20227;-82
2023/07/30 08:55:16;;;;;;;4.83;1.47;;;20.80;99.90;;;;;;4924732;28;20238;-82
2023/07/30 08:57:44;;;;;;;6.63;1.67;;;20.70;99.90;;;;;;4937071;28;20228;-84
2023/07/30 09:00:10;;;;;;;2.33;1.57;;;20.30;99.90;;;;;;4950964;28;20203;-81
2023/07/30 09:02:44;;;;;;;2.23;1.03;;;20.30;99.90;;;;;;4940567;28;20223;-82
2023/07/30 09:05:10;;;;;;;2.97;1.20;;;20.30;99.90;;;;;;4943695;28;20221;-81
2023/07/30 09:07:36;;;;;;;3.70;1.47;;;20.40;99.90;;;;;;4943243;28;20228;-83
2023/07/30 09:10:02;;;;;;;6.27;1.30;;;21.50;99.90;;;;;;4944916;28;20222;-83
2023/07/30 09:12:33;;;;;;;4.30;1.33;;;23.40;99.90;;;;;;4945903;28;20296;-85
2023/07/30 09:14:58;;;;;;;1.48;1.05;;;23.80;99.90;;;;;;4942917;28;20213;-83
2023/07/30 09:17:25;;;;;;;2.47;1.00;;;24.10;99.90;;;;;;4922770;28;20721;-82
2023/07/30 09:19:52;;;;;;;1.20;0.93;;;24.80;99.90;;;;;;4944985;28;20212;-83
2023/07/30 09:22:28;;;;;;;2.20;1.17;;;25.10;99.90;;;;;;4947074;28;20224;-83
2023/07/30 09:24:58;;;;;;;3.38;1.20;;;23.70;99.90;;;;;;4940074;28;20257;-83
2023/07/30 09:27:26;;;;;;;5.05;1.52;;;22.60;99.90;;;;;;4936508;28;20817;-82
2023/07/30 09:29:56;;;;;;;7.90;1.42;;;22.70;99.90;;;;;;4939191;28;20625;-84
2023/07/30 09:32:40;;;;;;;3.03;0.90;;;23.50;99.90;;;;;;4946548;28;20304;-83
2023/07/30 09:35:10;;;;;;;2.92;1.17;;;23.30;99.90;;;;;;4926976;28;20229;-82
2023/07/30 09:37:38;;;;;;;1.95;1.05;;;22.20;99.90;;;;;;4941883;28;20619;-82
2023/07/30 09:40:09;;;;;;;3.72;0.88;;;21.90;99.90;;;;;;4922740;28;20226;-83
2023/07/30 09:42:39;;;;;;;4.85;1.60;;;21.00;99.90;;;;;;4925167;28;20304;-83
2023/07/30 09:45:08;;;;;;;5.22;1.50;;;20.30;99.90;;;;;;4941398;28;20315;-82
2023/07/30 09:47:37;;;;;;;2.30;2.10;;;21.60;99.90;;;;;;4935956;28;20589;-83
2023/07/30 09:50:03;;;;;;;4.50;1.10;;;23.00;99.90;;;;;;4942022;28;20699;-82
2023/07/30 09:52:30;;;;;;;4.82;1.23;;;23.60;99.90;;;;;;4938666;28;20216;-82
2023/07/30 09:54:58;;;;;;;4.72;1.45;;;24.20;99.90;;;;;;4956754;28;20239;-83
2023/07/30 09:57:24;;;;;;;1.40;0.95;;;23.00;99.90;;;;;;4958464;28;20228;-83
2023/07/30 09:59:50;;;;;;;2.25;1.98;;;22.20;99.90;;;;;;4943763;28;20204;-82
2023/07/30 10:02:16;;;;;;;5.88;1.25;;;22.70;99.90;;;;;;4944210;28;20224;-82
2023/07/30 10:04:47;;;;;;;0.95;0.90;;;23.80;99.90;;;;;;4958202;28;20251;-83
2023/07/30 10:07:23;;;;;;;4.00;1.05;;;23.60;99.90;;;;;;4956609;28;20766;-83
2023/07/30 10:09:54;;;;;;;6.40;1.13;;;22.80;99.90;;;;;;4962141;28;20279;-83
2023/07/30 10:12:27;;;;;;;1.90;0.68;;;22.90;99.90;;;;;;4964037;28;20192;-83
2023/07/30 10:14:53;;;;;;;3.00;1.23;;;23.10;99.90;;;;;;4961612;28;20220;-82
2023/07/30 10:17:19;;;;;;;9.52;1.45;;;22.40;99.90;;;;;;4944639;28;20232;-84
2023/07/30 10:19:49;;;;;;;6.25;1.75;;;22.60;99.90;;;;;;4944108;28;20228;-82
2023/07/30 10:22:17;;;;;;;3.70;1.23;;;23.00;99.90;;;;;;4963264;28;20867;-84
2023/07/30 10:25:12;;;;;;;3.92;1.38;;;22.40;99.90;;;;;;4962080;28;20298;-83
2023/07/30 10:27:46;;;;;;;6.50;1.23;;;21.60;99.90;;;;;;4957877;28;20749;-83
2023/07/30 10:30:17;;;;;;;3.08;1.27;;;21.50;99.90;;;;;;4950051;28;20184;-83
2023/07/30 10:32:59;;;;;;;2.63;1.10;;;22.00;99.90;;;;;;4965092;28;20199;-85
2023/07/30 10:35:48;;;;;;;4.40;1.20;;;21.60;99.90;;;;;;4948618;28;20287;-83
2023/07/30 10:38:28;;;;;;;2.63;1.42;;;21.30;99.90;;;;;;4964665;28;20318;-83
2023/07/30 10:41:04;;;;;;;8.32;1.35;;;21.80;99.90;;;;;;4947189;28;20215;-83
2023/07/30 10:43:34;;;;;;;4.10;1.60;;;22.50;99.90;;;;;;4962423;28;20674;-83
2023/07/30 10:45:59;;;;;;;3.53;1.13;;;22.10;99.90;;;;;;4959909;28;20225;-83
2023/07/30 10:48:38;;;;;;;5.35;1.40;;;21.80;99.90;;;;;;4961607;28;20586;-83
2023/07/30 10:51:10;;;;;;;4.20;1.20;;;21.20;99.90;;;;;;4962101;28;20259;-84
2023/07/30 10:53:36;;;;;;;5.25;1.67;;;20.90;99.90;;;;;;4959280;28;20650;-84
2023/07/30 10:56:07;;;;;;;0.85;0.85;;;21.40;99.90;;;;;;4959587;28;20232;-83
2023/07/30 10:58:34;;;;;;;4.95;1.17;;;22.40;99.90;;;;;;4959661;28;20235;-84
2023/07/30 11:01:08;;;;;;;6.78;1.50;;;22.70;99.90;;;;;;4964642;28;20232;-83
2023/07/30 11:03:35;;;;;;;1.27;1.05;;;22.10;99.90;;;;;;4956453;28;20696;-83
2023/07/30 11:06:02;;;;;;;5.32;1.45;;;22.20;99.90;;;;;;4950517;28;20565;-83
2023/07/30 11:08:42;;;;;;;1.55;0.90;;;22.60;99.90;;;;;;4963337;28;20635;-83
2023/07/30 11:11:11;;;;;;;2.28;1.23;;;22.70;99.90;;;;;;4962678;28;20224;-84
2023/07/30 11:13:43;;;;;;;6.75;1.30;;;21.90;99.90;;;;;;4960127;28;20219;-83
2023/07/30 11:16:10;;;;;;;2.27;1.10;;;20.90;99.90;;;;;;4961715;28;20239;-83
2023/07/30 11:18:37;;;;;;;4.13;0.98;;;20.60;99.90;;;;;;4964915;28;20351;-83
2023/07/30 11:21:08;;;;;;;4.30;1.27;;;21.10;99.90;;;;;;4962655;28;20191;-83
2023/07/30 11:23:39;;;;;;;6.70;1.10;;;21.60;99.90;;;;;;4966019;28;20367;-85
2023/07/30 11:26:06;;;;;;;3.10;1.13;;;21.60;99.90;;;;;;4963224;28;20316;-85
2023/07/30 11:28:34;;;;;;;2.40;0.70;;;21.60;99.90;;;;;;4946209;28;20263;-84
2023/07/30 11:31:03;;;;;;;3.33;1.00;;;21.10;99.90;;;;;;4966032;28;20224;-82
2023/07/30 11:33:30;;;;;;;3.40;0.83;;;20.70;99.90;;;;;;4962673;28;20673;-83
2023/07/30 11:35:56;;;;;;;3.37;0.97;;;21.10;99.90;;;;;;4963505;28;20212;-83
2023/07/30 11:38:27;;;;;;;4.28;1.23;;;20.80;99.90;;;;;;4955136;28;20228;-83
2023/07/30 11:40:54;;;;;;;4.32;1.23;;;20.60;99.90;;;;;;4958259;28;20235;-81
2023/07/30 11:43:23;;;;;;;2.07;0.80;;;20.50;99.90;;;;;;4956353;28;20288;-82
2023/07/30 11:46:12;;;;;;;3.63;0.73;;;20.70;99.90;;;;;;4946788;28;20224;-82
2023/07/30 11:48:39;;;;;;;3.43;1.10;;;21.20;99.90;;;;;;4960403;28;20251;-83
2023/07/30 11:51:06;;;;;;;0.90;0.80;;;21.20;99.90;;;;;;4946557;28;20309;-83
2023/07/30 11:53:51;;;;;;;3.37;1.33;;;21.10;99.90;;;;;;4963419;28;20240;-82
2023/07/30 11:56:25;;;;;;;0.73;0.60;;;20.90;99.90;;;;;;4962581;28;20240;-81
2023/07/30 11:58:54;;;;;;;6.55;1.13;;;21.00;99.90;;;;;;4959751;28;20220;-83
2023/07/30 12:01:20;;;;;;;2.93;0.90;;;21.10;99.90;;;;;;4943716;28;20220;-83
2023/07/30 12:03:46;;;;;;;0.60;0.60;;;21.00;99.90;;;;;;4946530;28;20235;-81
2023/07/30 12:06:12;;;;;;;2.05;0.70;;;21.10;99.90;;;;;;4961391;28;20589;-81
2023/07/30 12:08:41;;;;;;;1.03;0.80;;;20.80;99.90;;;;;;4954924;28;20227;-82
2023/07/30 12:11:09;;;;;;;2.00;1.17;;;21.10;99.90;;;;;;4961319;28;20335;-81
2023/07/30 12:13:45;;;;;;;2.50;0.90;;;21.50;99.90;;;;;;4962103;28;20579;-82
2023/07/30 12:16:12;;;;;;;1.30;0.83;;;21.60;99.90;;;;;;4961951;28;20244;-81
2023/07/30 12:18:39;;;;;;;5.90;0.70;;;21.80;99.90;;;;;;4956643;28;20655;-81
2023/07/30 12:21:07;;;;;;;1.83;0.70;;;21.60;99.90;;;;;;4959637;28;21055;-82
2023/07/30 12:23:36;;;;;;;7.00;1.07;;;21.70;99.90;;;;;;4959481;28;20212;-81
2023/07/30 12:26:05;;;;;;;4.20;0.83;;;21.70;99.90;;;;;;4957426;28;20243;-82
2023/07/30 12:28:34;;;;;;;3.23;0.70;;;21.60;99.90;;;;;;4942193;28;20307;-82
2023/07/30 12:31:00;;;;;;;1.70;1.27;;;21.40;99.90;;;;;;4962662;28;20227;-82
2023/07/30 12:33:25;;;;;;;3.97;1.17;;;21.30;99.90;;;;;;4963994;28;20197;-82
2023/07/30 12:35:51;;;;;;;2.00;0.93;;;21.30;99.90;;;;;;4961339;28;20816;-82
2023/07/30 12:38:17;;;;;;;3.33;0.77;;;21.20;99.90;;;;;;4965050;28;20229;-82
2023/07/30 12:40:42;;;;;;;2.67;1.00;;;20.90;99.90;;;;;;4952930;28;20305;-81
2023/07/30 12:43:09;;;;;;;6.90;1.20;;;21.30;99.90;;;;;;4953833;28;20416;-84
2023/07/30 12:45:35;;;;;;;8.50;1.13;;;21.20;99.90;;;;;;4955575;28;20240;-83